Home   Weather   India   Firozpur   Past weeks
Flag for India

Past Weather in Firozpur, Punjab, India — Yesterday and Last 2 Weeks

Currently: 61 °F. Scattered clouds. (Weather station: Lahore Airport, India). See more current weather

Past Weather in Firozpur — Graph

°F

Firozpur Temperature Yesterday

Maximum temperature yesterday: 75 °F (at 2:25 pm)
Minimum temperature yesterday: 52 °F (at 7:25 am)
Average temperature yesterday: 65 °F

High & Low Weather Summary for the Past Weeks

 TemperatureHumidityPressure
High77 °F (Feb 4, 3:25 pm)100% (Jan 24, 11:25 pm)30.18 "Hg (Jan 24, 11:25 pm)
Low37 °F (Jan 27, 7:25 am)27% (Feb 5, 2:25 pm)29.83 "Hg (Feb 5, 5:55 pm)
Average59 °F66%30.00 "Hg
* Reported Jan 24 9:55 am — Feb 8 9:55 am, Firozpur. Weather by CustomWeather, © 2023

Note: Actual official high and low records may vary slightly from our data, if they occured in-between our weather recording intervals... More about our weather records

Firozpur Weather History for the Previous 24 Hours

Scroll right to see more
 ConditionsComfort  
Time TempWeatherWind HumidityBarometerVisibility
9:55 am
Wed, Feb 8
59 °FScattered clouds.No wind68%29.98 "Hg1 mi
9:25 am57 °FScattered clouds.No wind72%29.98 "Hg1 mi
8:55 am54 °FScattered clouds.No wind77%29.98 "Hg1 mi
8:40 am52 °FScattered clouds.3 mph77%29.98 "Hg2 mi
8:25 am52 °FFog.3 mph77%29.98 "Hg2 mi
7:55 am50 °FFog.3 mph82%29.95 "Hg2 mi
7:25 am50 °FFog.3 mph82%29.95 "Hg2 mi
6:55 am50 °FPassing clouds.3 mph82%29.92 "Hg2 mi
6:25 am50 °FPassing clouds.2 mph82%29.92 "Hg2 mi
4:55 am52 °FPassing clouds.5 mph77%29.92 "Hg2 mi
4:25 am52 °FPassing clouds.5 mph77%29.92 "Hg2 mi
3:55 am52 °FPassing clouds.6 mph77%29.92 "Hg2 mi
3:25 am52 °FPassing clouds.No wind77%29.92 "Hg2 mi
2:55 am52 °FClear.No wind77%29.89 "Hg2 mi
2:25 am54 °FClear.No wind72%29.92 "Hg2 mi
1:55 am54 °FClear.No wind72%29.92 "Hg2 mi
1:25 am55 °FClear.No wind67%29.92 "Hg2 mi
12:55 am55 °FClear.No wind77%29.92 "Hg2 mi
12:25 am57 °FClear.No wind72%29.92 "Hg2 mi
11:25 pm
Tue, Feb 7
59 °FClear.No wind68%29.92 "Hg3 mi
10:55 pm63 °FClear.No wind56%29.92 "Hg3 mi
10:25 pm63 °FClear.No wind56%29.92 "Hg3 mi
9:55 pm64 °FClear.No wind52%29.92 "Hg3 mi
9:25 pm64 °FClear.No wind52%29.92 "Hg3 mi
8:55 pm64 °FClear.No wind49%29.92 "Hg4 mi
8:25 pm66 °FClear.No wind46%29.92 "Hg4 mi
7:55 pm66 °FMild.No wind49%29.89 "Hg4 mi
7:25 pm68 °FClear.5 mph43%29.89 "Hg4 mi
6:55 pm72 °FPassing clouds.7 mph36%29.89 "Hg4 mi
6:25 pm72 °FPassing clouds.13 mph33%29.86 "Hg4 mi
5:55 pm73 °FPassing clouds.13 mph31%29.86 "Hg4 mi
5:25 pm73 °FClear.14 mph31%29.86 "Hg4 mi
4:55 pm75 °FClear.17 mph31%29.86 "Hg4 mi
4:25 pm75 °FClear.16 mph29%29.86 "Hg4 mi
3:55 pm75 °FClear.18 mph29%29.86 "Hg4 mi
3:25 pm75 °FClear.20 mph29%29.86 "Hg4 mi
2:55 pm75 °FClear.18 mph31%29.89 "Hg4 mi
2:25 pm75 °FClear.14 mph31%29.89 "Hg4 mi
1:55 pm73 °FClear.12 mph36%29.89 "Hg4 mi
1:25 pm73 °FClear.15 mph36%29.92 "Hg4 mi
12:55 pm72 °FClear.14 mph38%29.92 "Hg4 mi
12:25 pm72 °FClear.17 mph38%29.92 "Hg4 mi
11:25 am66 °FClear.18 mph46%29.95 "Hg4 mi
10:55 am64 °FClear.16 mph52%29.95 "Hg4 mi
10:25 am64 °FClear.14 mph52%29.95 "Hg4 mi
Weather by CustomWeather, © 2023

See weather overview